sensor_id;sensor_type;location;lat;lon;timestamp;P1;durP1;ratioP1;P2;durP2;ratioP2
37067;SDS011;22982;42.848;25.468;2022-11-23T00:02:18;4.53;;;2.08;;
37067;SDS011;22982;42.848;25.468;2022-11-23T00:07:20;3.17;;;2.00;;
37067;SDS011;22982;42.848;25.468;2022-11-23T00:12:23;6.05;;;2.75;;
37067;SDS011;22982;42.848;25.468;2022-11-23T00:17:25;5.28;;;2.55;;
37067;SDS011;22982;42.848;25.468;2022-11-23T00:22:27;3.47;;;2.55;;
37067;SDS011;22982;42.848;25.468;2022-11-23T00:27:29;3.17;;;2.30;;
37067;SDS011;22982;42.848;25.468;2022-11-23T00:32:31;4.78;;;3.05;;
37067;SDS011;22982;42.848;25.468;2022-11-23T00:37:33;2.65;;;2.17;;
37067;SDS011;22982;42.848;25.468;2022-11-23T00:42:35;3.50;;;3.17;;
37067;SDS011;22982;42.848;25.468;2022-11-23T00:47:39;7.80;;;3.70;;
37067;SDS011;22982;42.848;25.468;2022-11-23T00:52:41;8.18;;;3.33;;
37067;SDS011;22982;42.848;25.468;2022-11-23T00:57:43;3.35;;;2.75;;
37067;SDS011;22982;42.848;25.468;2022-11-23T01:02:45;5.85;;;3.97;;
37067;SDS011;22982;42.848;25.468;2022-11-23T01:07:47;8.13;;;4.30;;
37067;SDS011;22982;42.848;25.468;2022-11-23T01:12:49;5.70;;;3.47;;
37067;SDS011;22982;42.848;25.468;2022-11-23T01:17:52;4.65;;;4.07;;
37067;SDS011;22982;42.848;25.468;2022-11-23T01:22:54;4.20;;;3.38;;
37067;SDS011;22982;42.848;25.468;2022-11-23T01:27:56;5.65;;;3.13;;
37067;SDS011;22982;42.848;25.468;2022-11-23T01:32:59;5.20;;;2.83;;
37067;SDS011;22982;42.848;25.468;2022-11-23T01:38:02;4.03;;;2.83;;
37067;SDS011;22982;42.848;25.468;2022-11-23T01:43:05;2.83;;;2.20;;
37067;SDS011;22982;42.848;25.468;2022-11-23T01:48:15;2.20;;;1.98;;
37067;SDS011;22982;42.848;25.468;2022-11-23T01:53:21;1.55;;;1.45;;
37067;SDS011;22982;42.848;25.468;2022-11-23T01:58:24;1.58;;;1.48;;
37067;SDS011;22982;42.848;25.468;2022-11-23T02:03:28;1.90;;;1.80;;
37067;SDS011;22982;42.848;25.468;2022-11-23T02:08:35;1.83;;;1.73;;
37067;SDS011;22982;42.848;25.468;2022-11-23T02:13:38;2.00;;;1.50;;
37067;SDS011;22982;42.848;25.468;2022-11-23T02:18:42;1.63;;;1.52;;
37067;SDS011;22982;42.848;25.468;2022-11-23T02:33:56;7.90;;;3.50;;
37067;SDS011;22982;42.848;25.468;2022-11-23T02:38:59;3.83;;;2.58;;
37067;SDS011;22982;42.848;25.468;2022-11-23T02:44:06;2.83;;;1.63;;
37067;SDS011;22982;42.848;25.468;2022-11-23T02:49:18;2.25;;;1.98;;
37067;SDS011;22982;42.848;25.468;2022-11-23T02:54:20;3.63;;;2.42;;
37067;SDS011;22982;42.848;25.468;2022-11-23T02:59:22;2.38;;;1.70;;
37067;SDS011;22982;42.848;25.468;2022-11-23T03:04:26;2.67;;;1.85;;
37067;SDS011;22982;42.848;25.468;2022-11-23T03:09:28;13.48;;;6.50;;
37067;SDS011;22982;42.848;25.468;2022-11-23T03:14:31;2.83;;;2.17;;
37067;SDS011;22982;42.848;25.468;2022-11-23T03:19:34;1.92;;;1.77;;
37067;SDS011;22982;42.848;25.468;2022-11-23T03:24:36;4.30;;;2.35;;
37067;SDS011;22982;42.848;25.468;2022-11-23T03:29:40;4.65;;;2.42;;
37067;SDS011;22982;42.848;25.468;2022-11-23T03:34:48;2.92;;;2.70;;
37067;SDS011;22982;42.848;25.468;2022-11-23T03:39:53;4.75;;;3.05;;
37067;SDS011;22982;42.848;25.468;2022-11-23T03:45:21;5.35;;;4.80;;
37067;SDS011;22982;42.848;25.468;2022-11-23T03:50:23;10.32;;;6.07;;
37067;SDS011;22982;42.848;25.468;2022-11-23T03:55:26;41.35;;;27.48;;
37067;SDS011;22982;42.848;25.468;2022-11-23T04:00:28;8.43;;;6.43;;
37067;SDS011;22982;42.848;25.468;2022-11-23T04:05:32;8.20;;;5.50;;
37067;SDS011;22982;42.848;25.468;2022-11-23T04:10:57;11.43;;;7.35;;
37067;SDS011;22982;42.848;25.468;2022-11-23T04:16:17;13.27;;;5.55;;
37067;SDS011;22982;42.848;25.468;2022-11-23T04:21:19;30.08;;;24.48;;
37067;SDS011;22982;42.848;25.468;2022-11-23T04:26:22;16.63;;;9.55;;
37067;SDS011;22982;42.848;25.468;2022-11-23T04:31:24;7.78;;;6.40;;
37067;SDS011;22982;42.848;25.468;2022-11-23T04:36:41;7.53;;;4.78;;
37067;SDS011;22982;42.848;25.468;2022-11-23T04:41:44;6.20;;;5.20;;
37067;SDS011;22982;42.848;25.468;2022-11-23T04:46:46;9.05;;;6.10;;
37067;SDS011;22982;42.848;25.468;2022-11-23T04:51:53;7.50;;;6.07;;
37067;SDS011;22982;42.848;25.468;2022-11-23T04:57:01;5.93;;;4.82;;
37067;SDS011;22982;42.848;25.468;2022-11-23T05:02:04;8.52;;;6.65;;
37067;SDS011;22982;42.848;25.468;2022-11-23T05:07:17;29.30;;;21.90;;
37067;SDS011;22982;42.848;25.468;2022-11-23T05:12:26;14.65;;;10.50;;
37067;SDS011;22982;42.848;25.468;2022-11-23T05:17:28;12.45;;;8.35;;
37067;SDS011;22982;42.848;25.468;2022-11-23T05:22:30;8.77;;;6.80;;
37067;SDS011;22982;42.848;25.468;2022-11-23T05:27:33;11.02;;;9.23;;
37067;SDS011;22982;42.848;25.468;2022-11-23T05:32:35;8.02;;;5.57;;
37067;SDS011;22982;42.848;25.468;2022-11-23T05:37:39;12.57;;;9.82;;
37067;SDS011;22982;42.848;25.468;2022-11-23T05:42:45;15.18;;;11.43;;
37067;SDS011;22982;42.848;25.468;2022-11-23T05:47:54;11.45;;;10.23;;
37067;SDS011;22982;42.848;25.468;2022-11-23T05:53:26;11.35;;;9.05;;
37067;SDS011;22982;42.848;25.468;2022-11-23T05:58:36;14.57;;;9.98;;
37067;SDS011;22982;42.848;25.468;2022-11-23T06:03:39;11.55;;;10.27;;
37067;SDS011;22982;42.848;25.468;2022-11-23T06:08:43;19.85;;;17.80;;
37067;SDS011;22982;42.848;25.468;2022-11-23T06:13:51;14.52;;;12.65;;
37067;SDS011;22982;42.848;25.468;2022-11-23T06:18:53;17.40;;;9.55;;
37067;SDS011;22982;42.848;25.468;2022-11-23T06:23:55;10.52;;;9.43;;
37067;SDS011;22982;42.848;25.468;2022-11-23T06:28:59;7.80;;;7.00;;
37067;SDS011;22982;42.848;25.468;2022-11-23T06:34:02;74.45;;;51.60;;
37067;SDS011;22982;42.848;25.468;2022-11-23T06:39:06;53.78;;;40.50;;
37067;SDS011;22982;42.848;25.468;2022-11-23T06:44:09;26.90;;;21.38;;
37067;SDS011;22982;42.848;25.468;2022-11-23T06:49:14;13.00;;;10.73;;
37067;SDS011;22982;42.848;25.468;2022-11-23T06:54:22;11.02;;;7.95;;
37067;SDS011;22982;42.848;25.468;2022-11-23T06:59:29;11.15;;;9.85;;
37067;SDS011;22982;42.848;25.468;2022-11-23T07:04:32;5.32;;;4.63;;
37067;SDS011;22982;42.848;25.468;2022-11-23T07:09:37;6.90;;;5.30;;
37067;SDS011;22982;42.848;25.468;2022-11-23T07:14:51;8.20;;;5.78;;
37067;SDS011;22982;42.848;25.468;2022-11-23T07:19:54;6.88;;;4.88;;
37067;SDS011;22982;42.848;25.468;2022-11-23T07:24:56;5.22;;;4.72;;
37067;SDS011;22982;42.848;25.468;2022-11-23T07:29:58;6.15;;;5.55;;
37067;SDS011;22982;42.848;25.468;2022-11-23T07:35:00;5.93;;;5.30;;
37067;SDS011;22982;42.848;25.468;2022-11-23T07:40:05;6.45;;;5.85;;
37067;SDS011;22982;42.848;25.468;2022-11-23T07:45:09;6.90;;;6.20;;
37067;SDS011;22982;42.848;25.468;2022-11-23T07:50:17;7.40;;;6.38;;
37067;SDS011;22982;42.848;25.468;2022-11-23T07:55:20;7.28;;;6.00;;
37067;SDS011;22982;42.848;25.468;2022-11-23T08:00:23;6.68;;;5.50;;
37067;SDS011;22982;42.848;25.468;2022-11-23T08:05:26;7.32;;;6.28;;
37067;SDS011;22982;42.848;25.468;2022-11-23T08:10:29;6.78;;;5.70;;
37067;SDS011;22982;42.848;25.468;2022-11-23T08:15:32;19.88;;;14.40;;
37067;SDS011;22982;42.848;25.468;2022-11-23T08:20:36;8.40;;;7.43;;
37067;SDS011;22982;42.848;25.468;2022-11-23T08:25:38;9.50;;;6.22;;
37067;SDS011;22982;42.848;25.468;2022-11-23T08:30:40;11.95;;;7.53;;
37067;SDS011;22982;42.848;25.468;2022-11-23T08:35:42;8.77;;;7.13;;
37067;SDS011;22982;42.848;25.468;2022-11-23T08:40:44;6.25;;;5.50;;
37067;SDS011;22982;42.848;25.468;2022-11-23T08:45:47;7.97;;;6.15;;
37067;SDS011;22982;42.848;25.468;2022-11-23T08:50:50;11.45;;;9.00;;
37067;SDS011;22982;42.848;25.468;2022-11-23T08:55:52;18.40;;;11.77;;
37067;SDS011;22982;42.848;25.468;2022-11-23T09:00:54;13.52;;;10.57;;
37067;SDS011;22982;42.848;25.468;2022-11-23T09:05:58;12.18;;;10.18;;
37067;SDS011;22982;42.848;25.468;2022-11-23T09:11:02;4.78;;;4.30;;
37067;SDS011;22982;42.848;25.468;2022-11-23T09:16:06;5.20;;;4.70;;
37067;SDS011;22982;42.848;25.468;2022-11-23T09:21:15;7.25;;;6.03;;
37067;SDS011;22982;42.848;25.468;2022-11-23T09:26:18;5.65;;;5.07;;
37067;SDS011;22982;42.848;25.468;2022-11-23T09:31:20;8.95;;;6.35;;
37067;SDS011;22982;42.848;25.468;2022-11-23T09:36:24;10.07;;;7.45;;
37067;SDS011;22982;42.848;25.468;2022-11-23T09:47:14;10.27;;;7.35;;
37067;SDS011;22982;42.848;25.468;2022-11-23T09:52:23;9.20;;;5.35;;
37067;SDS011;22982;42.848;25.468;2022-11-23T09:57:27;5.47;;;4.70;;
37067;SDS011;22982;42.848;25.468;2022-11-23T10:02:35;9.77;;;8.63;;
37067;SDS011;22982;42.848;25.468;2022-11-23T10:24:16;4.65;;;4.25;;
37067;SDS011;22982;42.848;25.468;2022-11-23T10:45:03;4.95;;;4.25;;
37067;SDS011;22982;42.848;25.468;2022-11-23T10:55:33;9.52;;;7.47;;
37067;SDS011;22982;42.848;25.468;2022-11-23T11:00:59;6.30;;;4.47;;
37067;SDS011;22982;42.848;25.468;2022-11-23T11:06:06;7.20;;;4.85;;
37067;SDS011;22982;42.848;25.468;2022-11-23T11:11:20;9.52;;;4.60;;
37067;SDS011;22982;42.848;25.468;2022-11-23T11:16:29;6.28;;;4.18;;
37067;SDS011;22982;42.848;25.468;2022-11-23T11:21:33;6.53;;;4.45;;
37067;SDS011;22982;42.848;25.468;2022-11-23T11:26:49;9.23;;;4.80;;
37067;SDS011;22982;42.848;25.468;2022-11-23T11:32:05;7.55;;;5.05;;
37067;SDS011;22982;42.848;25.468;2022-11-23T11:42:33;7.20;;;3.63;;
37067;SDS011;22982;42.848;25.468;2022-11-23T11:47:52;9.15;;;3.88;;
37067;SDS011;22982;42.848;25.468;2022-11-23T11:53:12;5.13;;;3.17;;
37067;SDS011;22982;42.848;25.468;2022-11-23T11:58:18;6.05;;;3.25;;
37067;SDS011;22982;42.848;25.468;2022-11-23T12:03:39;8.07;;;3.20;;
37067;SDS011;22982;42.848;25.468;2022-11-23T12:14:15;7.95;;;6.75;;
37067;SDS011;22982;42.848;25.468;2022-11-23T12:19:18;7.40;;;5.70;;
37067;SDS011;22982;42.848;25.468;2022-11-23T12:35:19;9.30;;;7.07;;
37067;SDS011;22982;42.848;25.468;2022-11-23T12:40:46;6.65;;;6.05;;
37067;SDS011;22982;42.848;25.468;2022-11-23T12:51:38;4.75;;;3.78;;
37067;SDS011;22982;42.848;25.468;2022-11-23T12:56:46;5.05;;;3.75;;
37067;SDS011;22982;42.848;25.468;2022-11-23T13:01:53;3.92;;;3.60;;
37067;SDS011;22982;42.848;25.468;2022-11-23T13:07:11;5.38;;;4.20;;
37067;SDS011;22982;42.848;25.468;2022-11-23T13:23:19;9.82;;;8.82;;
37067;SDS011;22982;42.848;25.468;2022-11-23T13:28:28;9.35;;;8.45;;
37067;SDS011;22982;42.848;25.468;2022-11-23T13:33:37;9.93;;;5.60;;
37067;SDS011;22982;42.848;25.468;2022-11-23T13:38:42;14.80;;;12.13;;
37067;SDS011;22982;42.848;25.468;2022-11-23T13:43:45;10.98;;;7.47;;
37067;SDS011;22982;42.848;25.468;2022-11-23T13:48:51;52.58;;;34.80;;
37067;SDS011;22982;42.848;25.468;2022-11-23T13:54:01;36.30;;;24.97;;
37067;SDS011;22982;42.848;25.468;2022-11-23T13:59:22;90.80;;;57.35;;
37067;SDS011;22982;42.848;25.468;2022-11-23T14:04:26;100.22;;;66.05;;
37067;SDS011;22982;42.848;25.468;2022-11-23T14:09:34;34.70;;;28.50;;
37067;SDS011;22982;42.848;25.468;2022-11-23T14:31:17;15.88;;;11.50;;
37067;SDS011;22982;42.848;25.468;2022-11-23T14:41:42;12.43;;;9.80;;
37067;SDS011;22982;42.848;25.468;2022-11-23T14:47:04;14.85;;;10.00;;
37067;SDS011;22982;42.848;25.468;2022-11-23T14:52:12;17.70;;;12.98;;
37067;SDS011;22982;42.848;25.468;2022-11-23T14:57:31;13.70;;;8.37;;
37067;SDS011;22982;42.848;25.468;2022-11-23T15:02:47;12.00;;;8.32;;
37067;SDS011;22982;42.848;25.468;2022-11-23T15:07:54;16.83;;;14.75;;
37067;SDS011;22982;42.848;25.468;2022-11-23T15:13:01;21.85;;;13.73;;
37067;SDS011;22982;42.848;25.468;2022-11-23T15:18:03;18.42;;;9.82;;
37067;SDS011;22982;42.848;25.468;2022-11-23T15:23:05;29.10;;;13.15;;
37067;SDS011;22982;42.848;25.468;2022-11-23T15:28:18;17.75;;;12.43;;
37067;SDS011;22982;42.848;25.468;2022-11-23T15:33:28;21.70;;;14.82;;
37067;SDS011;22982;42.848;25.468;2022-11-23T15:38:30;30.15;;;18.15;;
37067;SDS011;22982;42.848;25.468;2022-11-23T15:43:32;40.20;;;28.05;;
37067;SDS011;22982;42.848;25.468;2022-11-23T15:48:36;77.90;;;59.78;;
37067;SDS011;22982;42.848;25.468;2022-11-23T15:53:45;63.45;;;34.60;;
37067;SDS011;22982;42.848;25.468;2022-11-23T15:58:50;83.95;;;45.83;;
37067;SDS011;22982;42.848;25.468;2022-11-23T16:03:57;64.57;;;37.35;;
37067;SDS011;22982;42.848;25.468;2022-11-23T16:09:34;82.20;;;59.53;;
37067;SDS011;22982;42.848;25.468;2022-11-23T16:14:56;110.00;;;67.13;;
37067;SDS011;22982;42.848;25.468;2022-11-23T16:20:00;67.03;;;48.70;;
37067;SDS011;22982;42.848;25.468;2022-11-23T16:30:25;115.97;;;75.28;;
37067;SDS011;22982;42.848;25.468;2022-11-23T16:35:35;46.55;;;32.17;;
37067;SDS011;22982;42.848;25.468;2022-11-23T16:40:38;117.05;;;80.68;;
37067;SDS011;22982;42.848;25.468;2022-11-23T16:45:41;90.25;;;51.35;;
37067;SDS011;22982;42.848;25.468;2022-11-23T16:50:45;132.55;;;82.85;;
37067;SDS011;22982;42.848;25.468;2022-11-23T16:55:54;114.45;;;74.30;;
37067;SDS011;22982;42.848;25.468;2022-11-23T17:06:04;43.10;;;30.85;;
37067;SDS011;22982;42.848;25.468;2022-11-23T17:11:25;38.92;;;28.45;;
37067;SDS011;22982;42.848;25.468;2022-11-23T17:16:28;121.82;;;82.85;;
37067;SDS011;22982;42.848;25.468;2022-11-23T17:21:31;42.08;;;26.90;;
37067;SDS011;22982;42.848;25.468;2022-11-23T17:26:35;84.93;;;54.85;;
37067;SDS011;22982;42.848;25.468;2022-11-23T17:31:39;68.68;;;46.50;;
37067;SDS011;22982;42.848;25.468;2022-11-23T17:36:44;54.17;;;32.88;;
37067;SDS011;22982;42.848;25.468;2022-11-23T17:41:48;55.63;;;35.83;;
37067;SDS011;22982;42.848;25.468;2022-11-23T17:46:58;56.05;;;42.70;;
37067;SDS011;22982;42.848;25.468;2022-11-23T17:52:01;32.15;;;19.27;;
37067;SDS011;22982;42.848;25.468;2022-11-23T17:57:03;34.67;;;23.98;;
37067;SDS011;22982;42.848;25.468;2022-11-23T18:02:06;39.45;;;26.60;;
37067;SDS011;22982;42.848;25.468;2022-11-23T18:07:11;40.60;;;29.13;;
37067;SDS011;22982;42.848;25.468;2022-11-23T18:12:14;36.63;;;28.48;;
37067;SDS011;22982;42.848;25.468;2022-11-23T18:17:17;33.90;;;21.90;;
37067;SDS011;22982;42.848;25.468;2022-11-23T18:22:22;51.45;;;30.88;;
37067;SDS011;22982;42.848;25.468;2022-11-23T18:27:25;46.72;;;31.58;;
37067;SDS011;22982;42.848;25.468;2022-11-23T18:32:27;32.08;;;20.30;;
37067;SDS011;22982;42.848;25.468;2022-11-23T18:37:29;31.25;;;20.08;;
37067;SDS011;22982;42.848;25.468;2022-11-23T18:42:32;34.47;;;24.27;;
37067;SDS011;22982;42.848;25.468;2022-11-23T18:47:34;41.50;;;26.58;;
37067;SDS011;22982;42.848;25.468;2022-11-23T18:52:36;81.90;;;55.40;;
37067;SDS011;22982;42.848;25.468;2022-11-23T18:57:38;53.90;;;35.50;;
37067;SDS011;22982;42.848;25.468;2022-11-23T19:02:40;50.72;;;31.88;;
37067;SDS011;22982;42.848;25.468;2022-11-23T19:07:43;46.10;;;31.58;;
37067;SDS011;22982;42.848;25.468;2022-11-23T19:12:45;35.13;;;24.17;;
37067;SDS011;22982;42.848;25.468;2022-11-23T19:17:47;48.00;;;31.02;;
37067;SDS011;22982;42.848;25.468;2022-11-23T19:22:50;60.10;;;42.92;;
37067;SDS011;22982;42.848;25.468;2022-11-23T19:27:52;42.35;;;28.17;;
37067;SDS011;22982;42.848;25.468;2022-11-23T19:32:55;56.97;;;35.28;;
37067;SDS011;22982;42.848;25.468;2022-11-23T19:37:59;38.15;;;25.88;;
37067;SDS011;22982;42.848;25.468;2022-11-23T19:43:01;36.58;;;25.05;;
37067;SDS011;22982;42.848;25.468;2022-11-23T19:48:03;36.67;;;23.10;;
37067;SDS011;22982;42.848;25.468;2022-11-23T19:53:05;34.05;;;19.20;;
37067;SDS011;22982;42.848;25.468;2022-11-23T19:58:13;36.95;;;25.85;;
37067;SDS011;22982;42.848;25.468;2022-11-23T20:03:19;56.45;;;36.17;;
37067;SDS011;22982;42.848;25.468;2022-11-23T20:08:21;42.45;;;23.60;;
37067;SDS011;22982;42.848;25.468;2022-11-23T20:13:23;36.15;;;24.23;;
37067;SDS011;22982;42.848;25.468;2022-11-23T20:18:25;34.17;;;21.25;;
37067;SDS011;22982;42.848;25.468;2022-11-23T20:23:38;30.55;;;19.90;;
37067;SDS011;22982;42.848;25.468;2022-11-23T20:28:41;32.00;;;20.30;;
37067;SDS011;22982;42.848;25.468;2022-11-23T20:33:44;29.77;;;20.00;;
37067;SDS011;22982;42.848;25.468;2022-11-23T20:38:46;27.92;;;18.73;;
37067;SDS011;22982;42.848;25.468;2022-11-23T20:43:51;25.85;;;17.45;;
37067;SDS011;22982;42.848;25.468;2022-11-23T20:48:55;26.90;;;17.20;;
37067;SDS011;22982;42.848;25.468;2022-11-23T20:54:00;21.52;;;15.52;;
37067;SDS011;22982;42.848;25.468;2022-11-23T20:59:02;25.45;;;16.17;;
37067;SDS011;22982;42.848;25.468;2022-11-23T21:04:05;35.35;;;26.10;;
37067;SDS011;22982;42.848;25.468;2022-11-23T21:09:09;28.23;;;18.63;;
37067;SDS011;22982;42.848;25.468;2022-11-23T21:14:18;23.83;;;14.98;;
37067;SDS011;22982;42.848;25.468;2022-11-23T21:19:29;24.63;;;14.33;;
37067;SDS011;22982;42.848;25.468;2022-11-23T21:24:33;24.58;;;15.40;;
37067;SDS011;22982;42.848;25.468;2022-11-23T21:29:36;21.05;;;14.63;;
37067;SDS011;22982;42.848;25.468;2022-11-23T21:34:39;17.55;;;13.13;;
37067;SDS011;22982;42.848;25.468;2022-11-23T21:39:41;18.75;;;12.55;;
37067;SDS011;22982;42.848;25.468;2022-11-23T21:44:50;18.33;;;12.77;;
37067;SDS011;22982;42.848;25.468;2022-11-23T21:49:52;15.98;;;11.00;;
37067;SDS011;22982;42.848;25.468;2022-11-23T21:54:54;22.67;;;12.52;;
37067;SDS011;22982;42.848;25.468;2022-11-23T21:59:56;22.67;;;13.90;;
37067;SDS011;22982;42.848;25.468;2022-11-23T22:04:58;23.77;;;14.10;;
37067;SDS011;22982;42.848;25.468;2022-11-23T22:10:00;21.35;;;13.05;;
37067;SDS011;22982;42.848;25.468;2022-11-23T22:15:03;24.13;;;15.30;;
37067;SDS011;22982;42.848;25.468;2022-11-23T22:20:05;20.35;;;10.27;;
37067;SDS011;22982;42.848;25.468;2022-11-23T22:25:08;16.35;;;9.45;;
37067;SDS011;22982;42.848;25.468;2022-11-23T22:30:11;18.92;;;8.73;;
37067;SDS011;22982;42.848;25.468;2022-11-23T22:35:14;18.60;;;11.98;;
37067;SDS011;22982;42.848;25.468;2022-11-23T22:40:16;20.27;;;12.75;;
37067;SDS011;22982;42.848;25.468;2022-11-23T22:45:18;18.38;;;11.43;;
37067;SDS011;22982;42.848;25.468;2022-11-23T22:50:21;14.13;;;9.52;;
37067;SDS011;22982;42.848;25.468;2022-11-23T22:55:23;18.48;;;11.38;;
37067;SDS011;22982;42.848;25.468;2022-11-23T23:00:25;16.10;;;9.50;;
37067;SDS011;22982;42.848;25.468;2022-11-23T23:05:27;12.80;;;7.97;;
37067;SDS011;22982;42.848;25.468;2022-11-23T23:10:29;13.05;;;8.45;;
37067;SDS011;22982;42.848;25.468;2022-11-23T23:15:32;13.25;;;7.90;;
37067;SDS011;22982;42.848;25.468;2022-11-23T23:20:34;14.63;;;8.25;;
37067;SDS011;22982;42.848;25.468;2022-11-23T23:25:36;17.42;;;8.40;;
37067;SDS011;22982;42.848;25.468;2022-11-23T23:30:39;11.52;;;8.02;;
37067;SDS011;22982;42.848;25.468;2022-11-23T23:35:49;10.60;;;7.47;;
37067;SDS011;22982;42.848;25.468;2022-11-23T23:40:54;10.23;;;6.37;;
37067;SDS011;22982;42.848;25.468;2022-11-23T23:45:57;12.38;;;7.85;;
37067;SDS011;22982;42.848;25.468;2022-11-23T23:51:04;12.80;;;6.97;;
37067;SDS011;22982;42.848;25.468;2022-11-23T23:56:11;10.65;;;7.18;;
